Bordeaux-Mérignac Airport

LFBD · Gironde, Nouvelle-Aquitaine, 法国

罗盘
风向 的 风向 120° Bordeaux-Mérignac Airport 5/23
风: 5 kt, 2 beaufort

1 kt

5 kt
改变
0 1.000 2.000 3.000 4.000 5.000
CAVOK
SPECI LFBD 261930Z AUTO 12005KT CAVOK 09/06 Q1026 BECMG 4000 BR

METAR Bordeaux-Mérignac Airport - LFBD/BOD

Bordeaux-Mérignac Airport是,法国中的大型机场。 该机场有2条跑道: 5/23 和 11/29. 该领域的国际民航组织标志是LFBD 它的国际航空运输协会代码是BOD.

这份报告是针对2022年11月26日 20:30, 当地时间在Bordeaux-Mérignac Airport进行的。

机场观察

风向为120°,速度为5 kt。

天气为CAVOK。这意味着在5.000 ft或MSA(最低安全高度)以下(以较高者为准)以下没有云。这也意味着没有观测到积雨云或高耸的积云,可见度为10 km 或者更多或更高。此外,不会有雾,降雨或其他重要天气。

温度为9 °C,阵风为6 °C。 露点为6 °C,相对湿度为82%。 海平面上的气压为1026 hPa (QNH)。

发展趋势

  • 变得

    可变方向的风很小或没有。 可见性变为4 km。 重大天气:薄雾。

白天

今天,太阳从08:14升起,在17:26降落。 这适用于Bordeaux-Mérignac Airport,世界夏令时可能有所不同。 当地时间与世界标准时间之间的时差为+1 小时。 当前,没有夏令时有效。

公司介绍

在这个机场,你可以找到飞行俱乐部。 本场上唯一已知的公司是CAPAM。

体会

到Vliegles.nl去找飞行课程,跳伞和其他飞行体验。 浏览页面,了解Bordeaux-Mérignac Airport附近所有可用的活动。 你也可以使用搜索功能来寻找你所在地附近的特定飞行课程、跳伞或其他飞行体验。

跑道

Id 标题 侧风 逆风 侧风 %
5/23 046°-226° 5 kt 1 kt 96 %
11/29 107°-287° 1 kt 5 kt 22 %

逆风成分最大的方向会被突出显示,并用于横风计算。 这并不一定意味着这个方向在使用。

温度 & 天气

温度 9 °C
露点 6 °C
相对湿度 82%
风寒 6 °C
Kp-index 3 (0-9)

白天

日出
08:14 (11:11)
中午
12:50
日落
17:26

小工具

你想在你的网站上有一个关于Bordeaux-Mérignac Airport的当前航空天气(METAR)的小部件吗?

显示HTML代码

我们和第三方通过cookies跟踪您在我们网站上的互联网行为。如果你继续,我们认为你同意我们的饼干政策